Houston Lake, Missouri
Current Conditions -  °F | °C
As of 3:54 PM on Thursday 18 Dec 2014 (Local Time) from KMKC Reporting Station
Overcast Overcast  
Wind Chill: 29°   Ceiling: 1100
Heat Index: 33°   Visibility: 7mi
Dew Point: 29°   Wind: 5mph
Humidity: 85%   Direction: 70°ENE
Pressure: 30.21"   Gusts: NA
Location:  39.2125°N, 94.6296°W
Report Text: KMKC 182154Z 07004KT 7SM OVC011 01/M02 A3021 RMK AO2 SLP236 T00061017
Loading
Personal Weather Stations






























Interactive Weather Map New forecast layout! Learn more

10-Day Weather Forecast

Advertisements
Track Severe Weather on mobile